sensor_id;sensor_type;location;lat;lon;timestamp;P1;durP1;ratioP1;P2;durP2;ratioP2
13147;SDS011;6639;50.956;4.242;2023-04-06T00:00:32;15.55;;;11.57;;
13147;SDS011;6639;50.956;4.242;2023-04-06T00:03:00;14.02;;;11.30;;
13147;SDS011;6639;50.956;4.242;2023-04-06T00:05:27;16.30;;;11.63;;
13147;SDS011;6639;50.956;4.242;2023-04-06T00:07:57;12.38;;;11.07;;
13147;SDS011;6639;50.956;4.242;2023-04-06T00:10:24;15.52;;;11.30;;
13147;SDS011;6639;50.956;4.242;2023-04-06T00:12:51;19.00;;;13.02;;
13147;SDS011;6639;50.956;4.242;2023-04-06T00:15:20;15.45;;;12.30;;
13147;SDS011;6639;50.956;4.242;2023-04-06T00:17:47;13.23;;;10.52;;
13147;SDS011;6639;50.956;4.242;2023-04-06T00:20:14;14.38;;;11.43;;
13147;SDS011;6639;50.956;4.242;2023-04-06T00:22:41;13.20;;;11.80;;
13147;SDS011;6639;50.956;4.242;2023-04-06T00:25:09;15.32;;;12.00;;
13147;SDS011;6639;50.956;4.242;2023-04-06T00:27:36;12.68;;;11.35;;
13147;SDS011;6639;50.956;4.242;2023-04-06T00:30:03;14.95;;;11.82;;
13147;SDS011;6639;50.956;4.242;2023-04-06T00:32:32;13.93;;;11.18;;
13147;SDS011;6639;50.956;4.242;2023-04-06T00:35:01;14.63;;;11.63;;
13147;SDS011;6639;50.956;4.242;2023-04-06T00:37:28;17.30;;;12.38;;
13147;SDS011;6639;50.956;4.242;2023-04-06T00:39:55;14.85;;;12.07;;
13147;SDS011;6639;50.956;4.242;2023-04-06T00:42:22;16.40;;;11.80;;
13147;SDS011;6639;50.956;4.242;2023-04-06T00:44:51;14.10;;;10.98;;
13147;SDS011;6639;50.956;4.242;2023-04-06T00:47:19;16.73;;;12.40;;
13147;SDS011;6639;50.956;4.242;2023-04-06T00:49:47;15.48;;;11.48;;
13147;SDS011;6639;50.956;4.242;2023-04-06T00:52:15;14.75;;;11.98;;
13147;SDS011;6639;50.956;4.242;2023-04-06T00:54:42;15.68;;;12.18;;
13147;SDS011;6639;50.956;4.242;2023-04-06T00:57:09;17.05;;;13.05;;
13147;SDS011;6639;50.956;4.242;2023-04-06T00:59:37;15.23;;;11.85;;
13147;SDS011;6639;50.956;4.242;2023-04-06T01:02:04;14.38;;;11.13;;
13147;SDS011;6639;50.956;4.242;2023-04-06T01:04:31;16.88;;;11.40;;
13147;SDS011;6639;50.956;4.242;2023-04-06T01:07:00;18.63;;;12.02;;
13147;SDS011;6639;50.956;4.242;2023-04-06T01:09:28;16.17;;;11.82;;
13147;SDS011;6639;50.956;4.242;2023-04-06T01:11:55;14.10;;;11.32;;
13147;SDS011;6639;50.956;4.242;2023-04-06T01:14:22;18.00;;;12.63;;
13147;SDS011;6639;50.956;4.242;2023-04-06T01:16:49;14.40;;;11.15;;
13147;SDS011;6639;50.956;4.242;2023-04-06T01:19:16;16.73;;;12.43;;
13147;SDS011;6639;50.956;4.242;2023-04-06T01:21:43;16.65;;;12.75;;
13147;SDS011;6639;50.956;4.242;2023-04-06T01:24:12;14.10;;;11.73;;
13147;SDS011;6639;50.956;4.242;2023-04-06T01:26:39;17.98;;;11.38;;
13147;SDS011;6639;50.956;4.242;2023-04-06T01:29:06;16.00;;;12.88;;
13147;SDS011;6639;50.956;4.242;2023-04-06T01:31:33;15.23;;;11.50;;
13147;SDS011;6639;50.956;4.242;2023-04-06T01:34:00;16.00;;;11.43;;
13147;SDS011;6639;50.956;4.242;2023-04-06T01:36:27;16.38;;;13.00;;
13147;SDS011;6639;50.956;4.242;2023-04-06T01:38:54;15.02;;;11.25;;
13147;SDS011;6639;50.956;4.242;2023-04-06T01:41:23;14.98;;;11.30;;
13147;SDS011;6639;50.956;4.242;2023-04-06T01:43:50;14.20;;;11.05;;
13147;SDS011;6639;50.956;4.242;2023-04-06T01:46:19;14.95;;;11.65;;
13147;SDS011;6639;50.956;4.242;2023-04-06T01:48:46;15.95;;;11.63;;
13147;SDS011;6639;50.956;4.242;2023-04-06T01:51:14;14.48;;;10.65;;
13147;SDS011;6639;50.956;4.242;2023-04-06T01:53:41;14.48;;;12.07;;
13147;SDS011;6639;50.956;4.242;2023-04-06T01:56:08;16.23;;;12.48;;
13147;SDS011;6639;50.956;4.242;2023-04-06T01:58:36;14.85;;;11.73;;
13147;SDS011;6639;50.956;4.242;2023-04-06T02:01:03;15.02;;;11.50;;
13147;SDS011;6639;50.956;4.242;2023-04-06T02:03:30;13.82;;;11.85;;
13147;SDS011;6639;50.956;4.242;2023-04-06T02:05:57;14.73;;;11.45;;
13147;SDS011;6639;50.956;4.242;2023-04-06T02:08:24;15.85;;;12.63;;
13147;SDS011;6639;50.956;4.242;2023-04-06T02:10:51;13.35;;;11.55;;
13147;SDS011;6639;50.956;4.242;2023-04-06T02:13:18;15.85;;;11.93;;
13147;SDS011;6639;50.956;4.242;2023-04-06T02:15:46;16.58;;;11.48;;
13147;SDS011;6639;50.956;4.242;2023-04-06T02:18:13;18.33;;;12.18;;
13147;SDS011;6639;50.956;4.242;2023-04-06T02:20:42;12.55;;;11.00;;
13147;SDS011;6639;50.956;4.242;2023-04-06T02:23:09;13.85;;;11.32;;
13147;SDS011;6639;50.956;4.242;2023-04-06T02:25:36;15.73;;;12.00;;
13147;SDS011;6639;50.956;4.242;2023-04-06T02:28:03;16.10;;;11.77;;
13147;SDS011;6639;50.956;4.242;2023-04-06T02:30:30;17.65;;;12.38;;
13147;SDS011;6639;50.956;4.242;2023-04-06T02:32:59;18.40;;;12.38;;
13147;SDS011;6639;50.956;4.242;2023-04-06T02:35:27;13.50;;;11.80;;
13147;SDS011;6639;50.956;4.242;2023-04-06T02:37:54;16.27;;;11.02;;
13147;SDS011;6639;50.956;4.242;2023-04-06T02:40:21;13.57;;;11.38;;
13147;SDS011;6639;50.956;4.242;2023-04-06T02:42:48;13.55;;;12.13;;
13147;SDS011;6639;50.956;4.242;2023-04-06T02:45:15;14.18;;;11.90;;
13147;SDS011;6639;50.956;4.242;2023-04-06T02:47:42;14.15;;;11.65;;
13147;SDS011;6639;50.956;4.242;2023-04-06T02:50:10;15.18;;;11.77;;
13147;SDS011;6639;50.956;4.242;2023-04-06T02:52:37;15.43;;;11.48;;
13147;SDS011;6639;50.956;4.242;2023-04-06T02:55:05;15.63;;;11.82;;
13147;SDS011;6639;50.956;4.242;2023-04-06T02:57:33;13.60;;;11.88;;
13147;SDS011;6639;50.956;4.242;2023-04-06T02:59:59;15.23;;;11.77;;
13147;SDS011;6639;50.956;4.242;2023-04-06T03:02:26;14.30;;;11.52;;
13147;SDS011;6639;50.956;4.242;2023-04-06T03:04:53;14.85;;;11.60;;
13147;SDS011;6639;50.956;4.242;2023-04-06T03:07:22;16.75;;;11.43;;
13147;SDS011;6639;50.956;4.242;2023-04-06T03:09:49;13.27;;;11.13;;
13147;SDS011;6639;50.956;4.242;2023-04-06T03:12:16;15.48;;;12.02;;
13147;SDS011;6639;50.956;4.242;2023-04-06T03:14:43;15.52;;;11.95;;
13147;SDS011;6639;50.956;4.242;2023-04-06T03:17:10;13.52;;;11.40;;
13147;SDS011;6639;50.956;4.242;2023-04-06T03:19:37;12.18;;;10.65;;
13147;SDS011;6639;50.956;4.242;2023-04-06T03:22:03;14.85;;;11.30;;
13147;SDS011;6639;50.956;4.242;2023-04-06T03:24:32;13.55;;;11.65;;
13147;SDS011;6639;50.956;4.242;2023-04-06T03:26:59;14.63;;;11.48;;
13147;SDS011;6639;50.956;4.242;2023-04-06T03:29:26;14.48;;;11.63;;
13147;SDS011;6639;50.956;4.242;2023-04-06T03:31:53;13.73;;;12.00;;
13147;SDS011;6639;50.956;4.242;2023-04-06T03:34:20;13.43;;;12.02;;
13147;SDS011;6639;50.956;4.242;2023-04-06T03:36:47;13.75;;;12.25;;
13147;SDS011;6639;50.956;4.242;2023-04-06T03:39:14;17.77;;;13.00;;
13147;SDS011;6639;50.956;4.242;2023-04-06T03:41:42;15.15;;;12.18;;
13147;SDS011;6639;50.956;4.242;2023-04-06T03:44:10;14.98;;;12.45;;
13147;SDS011;6639;50.956;4.242;2023-04-06T03:46:38;14.82;;;12.48;;
13147;SDS011;6639;50.956;4.242;2023-04-06T03:49:05;15.50;;;11.82;;
13147;SDS011;6639;50.956;4.242;2023-04-06T03:51:32;14.20;;;12.35;;
13147;SDS011;6639;50.956;4.242;2023-04-06T03:53:59;15.43;;;13.68;;
13147;SDS011;6639;50.956;4.242;2023-04-06T03:56:26;17.48;;;12.93;;
13147;SDS011;6639;50.956;4.242;2023-04-06T03:58:54;14.35;;;12.48;;
13147;SDS011;6639;50.956;4.242;2023-04-06T04:01:21;13.73;;;12.32;;
13147;SDS011;6639;50.956;4.242;2023-04-06T04:03:48;14.95;;;12.52;;
13147;SDS011;6639;50.956;4.242;2023-04-06T04:06:16;15.73;;;13.48;;
13147;SDS011;6639;50.956;4.242;2023-04-06T04:08:43;14.55;;;12.93;;
13147;SDS011;6639;50.956;4.242;2023-04-06T04:11:10;17.75;;;13.00;;
13147;SDS011;6639;50.956;4.242;2023-04-06T04:13:37;15.55;;;12.75;;
13147;SDS011;6639;50.956;4.242;2023-04-06T04:16:05;15.43;;;13.75;;
13147;SDS011;6639;50.956;4.242;2023-04-06T04:18:32;14.60;;;12.55;;
13147;SDS011;6639;50.956;4.242;2023-04-06T04:20:59;17.90;;;13.77;;
13147;SDS011;6639;50.956;4.242;2023-04-06T04:23:26;18.52;;;13.25;;
13147;SDS011;6639;50.956;4.242;2023-04-06T04:25:53;13.95;;;12.43;;
13147;SDS011;6639;50.956;4.242;2023-04-06T04:28:20;16.23;;;12.95;;
13147;SDS011;6639;50.956;4.242;2023-04-06T04:30:48;18.40;;;13.85;;
13147;SDS011;6639;50.956;4.242;2023-04-06T04:33:16;14.43;;;12.93;;
13147;SDS011;6639;50.956;4.242;2023-04-06T04:35:43;15.65;;;14.05;;
13147;SDS011;6639;50.956;4.242;2023-04-06T04:38:10;16.15;;;13.38;;
13147;SDS011;6639;50.956;4.242;2023-04-06T04:40:37;16.00;;;14.27;;
13147;SDS011;6639;50.956;4.242;2023-04-06T04:43:04;16.58;;;14.48;;
13147;SDS011;6639;50.956;4.242;2023-04-06T04:45:31;14.80;;;13.25;;
13147;SDS011;6639;50.956;4.242;2023-04-06T04:47:58;17.27;;;13.98;;
13147;SDS011;6639;50.956;4.242;2023-04-06T04:50:27;17.90;;;14.45;;
13147;SDS011;6639;50.956;4.242;2023-04-06T04:52:53;16.88;;;14.57;;
13147;SDS011;6639;50.956;4.242;2023-04-06T04:55:21;17.10;;;14.63;;
13147;SDS011;6639;50.956;4.242;2023-04-06T04:57:48;17.17;;;14.60;;
13147;SDS011;6639;50.956;4.242;2023-04-06T05:00:15;16.55;;;14.80;;
13147;SDS011;6639;50.956;4.242;2023-04-06T05:02:42;17.85;;;15.60;;
13147;SDS011;6639;50.956;4.242;2023-04-06T05:05:09;22.80;;;16.42;;
13147;SDS011;6639;50.956;4.242;2023-04-06T05:07:37;19.05;;;15.35;;
13147;SDS011;6639;50.956;4.242;2023-04-06T05:10:05;19.35;;;17.35;;
13147;SDS011;6639;50.956;4.242;2023-04-06T05:12:32;18.83;;;16.35;;
13147;SDS011;6639;50.956;4.242;2023-04-06T05:14:59;19.25;;;15.95;;
13147;SDS011;6639;50.956;4.242;2023-04-06T05:17:26;17.63;;;15.60;;
13147;SDS011;6639;50.956;4.242;2023-04-06T05:19:53;20.42;;;16.80;;
13147;SDS011;6639;50.956;4.242;2023-04-06T05:22:20;20.08;;;16.17;;
13147;SDS011;6639;50.956;4.242;2023-04-06T05:24:49;17.23;;;15.43;;
13147;SDS011;6639;50.956;4.242;2023-04-06T05:27:16;23.67;;;17.63;;
13147;SDS011;6639;50.956;4.242;2023-04-06T05:29:43;20.27;;;17.10;;
13147;SDS011;6639;50.956;4.242;2023-04-06T05:32:10;19.35;;;16.77;;
13147;SDS011;6639;50.956;4.242;2023-04-06T05:34:37;20.88;;;18.17;;
13147;SDS011;6639;50.956;4.242;2023-04-06T05:37:04;20.27;;;17.75;;
13147;SDS011;6639;50.956;4.242;2023-04-06T05:39:31;21.00;;;17.63;;
13147;SDS011;6639;50.956;4.242;2023-04-06T05:42:01;23.92;;;18.80;;
13147;SDS011;6639;50.956;4.242;2023-04-06T05:44:30;20.00;;;17.90;;
13147;SDS011;6639;50.956;4.242;2023-04-06T05:46:57;20.33;;;17.38;;
13147;SDS011;6639;50.956;4.242;2023-04-06T05:49:24;23.75;;;18.20;;
13147;SDS011;6639;50.956;4.242;2023-04-06T05:51:51;20.08;;;16.83;;
13147;SDS011;6639;50.956;4.242;2023-04-06T05:54:18;17.90;;;15.93;;
13147;SDS011;6639;50.956;4.242;2023-04-06T05:56:45;18.75;;;16.48;;
13147;SDS011;6639;50.956;4.242;2023-04-06T05:59:13;19.75;;;16.90;;
13147;SDS011;6639;50.956;4.242;2023-04-06T06:01:40;20.15;;;16.83;;
13147;SDS011;6639;50.956;4.242;2023-04-06T06:04:07;22.40;;;17.55;;
13147;SDS011;6639;50.956;4.242;2023-04-06T06:06:34;20.80;;;16.67;;
13147;SDS011;6639;50.956;4.242;2023-04-06T06:09:01;19.23;;;17.20;;
13147;SDS011;6639;50.956;4.242;2023-04-06T06:11:29;20.00;;;16.52;;
13147;SDS011;6639;50.956;4.242;2023-04-06T06:13:56;19.27;;;17.05;;
13147;SDS011;6639;50.956;4.242;2023-04-06T06:16:24;25.10;;;18.30;;
13147;SDS011;6639;50.956;4.242;2023-04-06T06:18:51;19.88;;;16.27;;
13147;SDS011;6639;50.956;4.242;2023-04-06T06:21:18;20.23;;;17.35;;
13147;SDS011;6639;50.956;4.242;2023-04-06T06:23:45;22.02;;;18.00;;
13147;SDS011;6639;50.956;4.242;2023-04-06T06:26:14;21.17;;;17.35;;
13147;SDS011;6639;50.956;4.242;2023-04-06T06:28:41;21.35;;;17.67;;
13147;SDS011;6639;50.956;4.242;2023-04-06T06:31:08;20.70;;;17.60;;
13147;SDS011;6639;50.956;4.242;2023-04-06T06:33:36;22.95;;;17.70;;
13147;SDS011;6639;50.956;4.242;2023-04-06T06:36:03;19.65;;;17.65;;
13147;SDS011;6639;50.956;4.242;2023-04-06T06:38:31;21.05;;;17.15;;
13147;SDS011;6639;50.956;4.242;2023-04-06T06:40:58;21.13;;;17.73;;
13147;SDS011;6639;50.956;4.242;2023-04-06T06:43:37;20.75;;;18.40;;
13147;SDS011;6639;50.956;4.242;2023-04-06T06:46:04;20.05;;;17.73;;
13147;SDS011;6639;50.956;4.242;2023-04-06T06:48:31;22.38;;;18.85;;
13147;SDS011;6639;50.956;4.242;2023-04-06T06:51:01;20.52;;;18.02;;
13147;SDS011;6639;50.956;4.242;2023-04-06T06:53:28;21.35;;;17.48;;
13147;SDS011;6639;50.956;4.242;2023-04-06T06:55:55;19.95;;;16.77;;
13147;SDS011;6639;50.956;4.242;2023-04-06T06:58:22;19.58;;;17.15;;
13147;SDS011;6639;50.956;4.242;2023-04-06T07:00:49;20.67;;;17.48;;
13147;SDS011;6639;50.956;4.242;2023-04-06T07:03:16;22.15;;;18.13;;
13147;SDS011;6639;50.956;4.242;2023-04-06T07:05:46;21.10;;;17.17;;
13147;SDS011;6639;50.956;4.242;2023-04-06T07:08:19;20.40;;;16.08;;
13147;SDS011;6639;50.956;4.242;2023-04-06T07:10:46;20.95;;;16.00;;
13147;SDS011;6639;50.956;4.242;2023-04-06T07:13:14;17.23;;;15.45;;
13147;SDS011;6639;50.956;4.242;2023-04-06T07:15:45;21.75;;;16.30;;
13147;SDS011;6639;50.956;4.242;2023-04-06T07:18:14;19.05;;;15.38;;
13147;SDS011;6639;50.956;4.242;2023-04-06T07:20:41;18.10;;;15.15;;
13147;SDS011;6639;50.956;4.242;2023-04-06T07:25:56;16.17;;;13.60;;
13147;SDS011;6639;50.956;4.242;2023-04-06T07:28:22;19.20;;;14.27;;
13147;SDS011;6639;50.956;4.242;2023-04-06T07:30:49;15.88;;;13.55;;
13147;SDS011;6639;50.956;4.242;2023-04-06T07:33:16;14.45;;;12.95;;
13147;SDS011;6639;50.956;4.242;2023-04-06T07:35:44;18.83;;;12.68;;
13147;SDS011;6639;50.956;4.242;2023-04-06T07:38:11;13.40;;;12.00;;
13147;SDS011;6639;50.956;4.242;2023-04-06T07:40:46;14.85;;;12.57;;
13147;SDS011;6639;50.956;4.242;2023-04-06T07:43:13;14.30;;;11.32;;
13147;SDS011;6639;50.956;4.242;2023-04-06T07:45:40;12.90;;;10.88;;
13147;SDS011;6639;50.956;4.242;2023-04-06T07:48:07;16.75;;;12.10;;
13147;SDS011;6639;50.956;4.242;2023-04-06T07:50:35;14.57;;;12.73;;
13147;SDS011;6639;50.956;4.242;2023-04-06T07:53:02;15.27;;;11.30;;
13147;SDS011;6639;50.956;4.242;2023-04-06T07:55:29;14.18;;;11.48;;
13147;SDS011;6639;50.956;4.242;2023-04-06T07:57:57;13.48;;;11.15;;
13147;SDS011;6639;50.956;4.242;2023-04-06T08:00:24;12.40;;;11.07;;
13147;SDS011;6639;50.956;4.242;2023-04-06T08:02:51;12.35;;;11.02;;
13147;SDS011;6639;50.956;4.242;2023-04-06T08:05:18;11.63;;;9.77;;
13147;SDS011;6639;50.956;4.242;2023-04-06T08:07:45;11.00;;;9.88;;
13147;SDS011;6639;50.956;4.242;2023-04-06T08:10:12;12.05;;;9.38;;
13147;SDS011;6639;50.956;4.242;2023-04-06T08:12:40;11.65;;;8.80;;
13147;SDS011;6639;50.956;4.242;2023-04-06T08:15:08;9.00;;;8.07;;
13147;SDS011;6639;50.956;4.242;2023-04-06T08:17:36;10.38;;;8.32;;
13147;SDS011;6639;50.956;4.242;2023-04-06T08:20:03;10.48;;;8.10;;
13147;SDS011;6639;50.956;4.242;2023-04-06T08:22:31;9.85;;;8.30;;
13147;SDS011;6639;50.956;4.242;2023-04-06T08:24:58;8.65;;;7.68;;
13147;SDS011;6639;50.956;4.242;2023-04-06T08:27:30;11.07;;;8.50;;
13147;SDS011;6639;50.956;4.242;2023-04-06T08:29:57;9.80;;;7.65;;
13147;SDS011;6639;50.956;4.242;2023-04-06T08:32:26;13.07;;;8.93;;
13147;SDS011;6639;50.956;4.242;2023-04-06T08:34:53;8.52;;;7.68;;
13147;SDS011;6639;50.956;4.242;2023-04-06T08:37:21;9.23;;;7.70;;
13147;SDS011;6639;50.956;4.242;2023-04-06T08:39:51;9.25;;;8.13;;
13147;SDS011;6639;50.956;4.242;2023-04-06T08:42:19;11.02;;;8.35;;
13147;SDS011;6639;50.956;4.242;2023-04-06T08:44:47;9.23;;;7.40;;
13147;SDS011;6639;50.956;4.242;2023-04-06T08:47:16;9.90;;;8.88;;
13147;SDS011;6639;50.956;4.242;2023-04-06T08:49:45;11.50;;;7.75;;
13147;SDS011;6639;50.956;4.242;2023-04-06T08:52:12;9.65;;;8.23;;
13147;SDS011;6639;50.956;4.242;2023-04-06T08:54:47;9.93;;;8.85;;
13147;SDS011;6639;50.956;4.242;2023-04-06T08:57:14;10.00;;;8.95;;
13147;SDS011;6639;50.956;4.242;2023-04-06T08:59:42;10.35;;;8.65;;
13147;SDS011;6639;50.956;4.242;2023-04-06T09:02:11;9.50;;;8.45;;
13147;SDS011;6639;50.956;4.242;2023-04-06T09:04:42;11.75;;;8.65;;
13147;SDS011;6639;50.956;4.242;2023-04-06T09:07:11;11.20;;;9.00;;
13147;SDS011;6639;50.956;4.242;2023-04-06T09:09:39;8.60;;;7.65;;
13147;SDS011;6639;50.956;4.242;2023-04-06T09:12:21;8.65;;;7.25;;
13147;SDS011;6639;50.956;4.242;2023-04-06T09:14:48;10.27;;;7.63;;
13147;SDS011;6639;50.956;4.242;2023-04-06T09:17:19;8.85;;;7.95;;
13147;SDS011;6639;50.956;4.242;2023-04-06T09:19:48;9.23;;;7.57;;
13147;SDS011;6639;50.956;4.242;2023-04-06T09:22:16;8.80;;;7.88;;
13147;SDS011;6639;50.956;4.242;2023-04-06T09:24:44;8.88;;;7.32;;
13147;SDS011;6639;50.956;4.242;2023-04-06T09:27:12;10.50;;;8.15;;
13147;SDS011;6639;50.956;4.242;2023-04-06T09:29:40;10.02;;;8.82;;
13147;SDS011;6639;50.956;4.242;2023-04-06T09:32:07;9.32;;;7.18;;
13147;SDS011;6639;50.956;4.242;2023-04-06T09:34:36;9.52;;;8.10;;
13147;SDS011;6639;50.956;4.242;2023-04-06T09:37:13;10.73;;;9.10;;
13147;SDS011;6639;50.956;4.242;2023-04-06T09:39:40;10.35;;;8.15;;
13147;SDS011;6639;50.956;4.242;2023-04-06T09:42:07;9.40;;;8.40;;
13147;SDS011;6639;50.956;4.242;2023-04-06T09:44:34;11.57;;;8.88;;
13147;SDS011;6639;50.956;4.242;2023-04-06T09:47:02;11.73;;;8.25;;
13147;SDS011;6639;50.956;4.242;2023-04-06T09:49:32;11.85;;;9.48;;
13147;SDS011;6639;50.956;4.242;2023-04-06T09:52:00;9.93;;;8.90;;
13147;SDS011;6639;50.956;4.242;2023-04-06T09:54:30;10.27;;;9.15;;
13147;SDS011;6639;50.956;4.242;2023-04-06T09:56:59;10.50;;;8.20;;
13147;SDS011;6639;50.956;4.242;2023-04-06T09:59:36;9.95;;;8.00;;
13147;SDS011;6639;50.956;4.242;2023-04-06T10:02:12;11.43;;;9.27;;
13147;SDS011;6639;50.956;4.242;2023-04-06T10:04:47;11.27;;;9.05;;
13147;SDS011;6639;50.956;4.242;2023-04-06T10:07:25;10.93;;;9.52;;
13147;SDS011;6639;50.956;4.242;2023-04-06T10:09:54;10.48;;;9.02;;
13147;SDS011;6639;50.956;4.242;2023-04-06T10:12:22;10.13;;;8.60;;
13147;SDS011;6639;50.956;4.242;2023-04-06T10:14:49;10.25;;;8.73;;
13147;SDS011;6639;50.956;4.242;2023-04-06T10:17:16;11.18;;;9.25;;
13147;SDS011;6639;50.956;4.242;2023-04-06T10:19:44;10.15;;;8.73;;
13147;SDS011;6639;50.956;4.242;2023-04-06T10:22:22;9.80;;;8.80;;
13147;SDS011;6639;50.956;4.242;2023-04-06T10:24:56;10.25;;;8.23;;
13147;SDS011;6639;50.956;4.242;2023-04-06T10:27:30;9.90;;;8.98;;
13147;SDS011;6639;50.956;4.242;2023-04-06T10:30:03;10.05;;;8.88;;
13147;SDS011;6639;50.956;4.242;2023-04-06T10:32:33;12.80;;;8.25;;
13147;SDS011;6639;50.956;4.242;2023-04-06T10:35:06;12.30;;;10.27;;
13147;SDS011;6639;50.956;4.242;2023-04-06T10:37:45;10.38;;;8.68;;
13147;SDS011;6639;50.956;4.242;2023-04-06T10:40:19;11.38;;;9.30;;
13147;SDS011;6639;50.956;4.242;2023-04-06T10:42:48;11.45;;;10.27;;
13147;SDS011;6639;50.956;4.242;2023-04-06T10:45:19;12.23;;;9.98;;
13147;SDS011;6639;50.956;4.242;2023-04-06T10:47:46;10.88;;;8.98;;
13147;SDS011;6639;50.956;4.242;2023-04-06T10:50:14;9.90;;;8.55;;
13147;SDS011;6639;50.956;4.242;2023-04-06T10:52:41;9.95;;;8.95;;
13147;SDS011;6639;50.956;4.242;2023-04-06T10:55:11;13.70;;;10.20;;
13147;SDS011;6639;50.956;4.242;2023-04-06T10:57:41;11.13;;;9.95;;
13147;SDS011;6639;50.956;4.242;2023-04-06T11:00:08;10.65;;;9.65;;
13147;SDS011;6639;50.956;4.242;2023-04-06T11:02:46;13.60;;;10.60;;
13147;SDS011;6639;50.956;4.242;2023-04-06T11:05:14;12.65;;;9.27;;
13147;SDS011;6639;50.956;4.242;2023-04-06T11:07:43;11.35;;;10.15;;
13147;SDS011;6639;50.956;4.242;2023-04-06T11:10:20;12.00;;;10.70;;
13147;SDS011;6639;50.956;4.242;2023-04-06T11:12:52;13.60;;;11.13;;
13147;SDS011;6639;50.956;4.242;2023-04-06T11:15:20;11.70;;;10.50;;
13147;SDS011;6639;50.956;4.242;2023-04-06T11:17:48;14.43;;;12.88;;
13147;SDS011;6639;50.956;4.242;2023-04-06T11:20:15;13.00;;;10.32;;
13147;SDS011;6639;50.956;4.242;2023-04-06T11:22:52;14.98;;;13.40;;
13147;SDS011;6639;50.956;4.242;2023-04-06T11:25:19;14.98;;;12.48;;
13147;SDS011;6639;50.956;4.242;2023-04-06T11:30:55;14.63;;;12.88;;
13147;SDS011;6639;50.956;4.242;2023-04-06T11:33:31;16.27;;;14.13;;
13147;SDS011;6639;50.956;4.242;2023-04-06T11:36:27;18.55;;;13.35;;
13147;SDS011;6639;50.956;4.242;2023-04-06T11:38:56;14.80;;;12.82;;
13147;SDS011;6639;50.956;4.242;2023-04-06T11:41:32;14.68;;;12.27;;
13147;SDS011;6639;50.956;4.242;2023-04-06T11:44:02;14.85;;;12.88;;
13147;SDS011;6639;50.956;4.242;2023-04-06T11:46:29;15.38;;;13.02;;
13147;SDS011;6639;50.956;4.242;2023-04-06T11:48:58;15.15;;;13.52;;
13147;SDS011;6639;50.956;4.242;2023-04-06T11:51:26;14.30;;;12.85;;
13147;SDS011;6639;50.956;4.242;2023-04-06T11:53:53;15.52;;;13.93;;
13147;SDS011;6639;50.956;4.242;2023-04-06T11:56:24;14.88;;;13.30;;
13147;SDS011;6639;50.956;4.242;2023-04-06T11:58:52;14.73;;;11.95;;
13147;SDS011;6639;50.956;4.242;2023-04-06T12:01:21;16.85;;;15.00;;
13147;SDS011;6639;50.956;4.242;2023-04-06T12:03:48;15.32;;;13.68;;
13147;SDS011;6639;50.956;4.242;2023-04-06T12:06:16;16.15;;;14.55;;
13147;SDS011;6639;50.956;4.242;2023-04-06T12:08:43;14.48;;;13.07;;
13147;SDS011;6639;50.956;4.242;2023-04-06T12:11:10;15.00;;;13.40;;
13147;SDS011;6639;50.956;4.242;2023-04-06T12:13:38;14.43;;;12.93;;
13147;SDS011;6639;50.956;4.242;2023-04-06T12:16:05;14.73;;;12.90;;
13147;SDS011;6639;50.956;4.242;2023-04-06T12:18:33;15.73;;;13.88;;
13147;SDS011;6639;50.956;4.242;2023-04-06T12:21:00;13.95;;;12.50;;
13147;SDS011;6639;50.956;4.242;2023-04-06T12:23:27;14.35;;;12.85;;
13147;SDS011;6639;50.956;4.242;2023-04-06T12:25:54;14.75;;;13.25;;
13147;SDS011;6639;50.956;4.242;2023-04-06T12:28:21;14.88;;;13.38;;
13147;SDS011;6639;50.956;4.242;2023-04-06T12:30:52;14.05;;;11.75;;
13147;SDS011;6639;50.956;4.242;2023-04-06T12:33:20;15.10;;;13.40;;
13147;SDS011;6639;50.956;4.242;2023-04-06T12:35:48;11.52;;;10.32;;
13147;SDS011;6639;50.956;4.242;2023-04-06T12:38:15;13.43;;;11.63;;
13147;SDS011;6639;50.956;4.242;2023-04-06T12:40:42;13.27;;;11.98;;
13147;SDS011;6639;50.956;4.242;2023-04-06T12:43:09;14.25;;;12.95;;
13147;SDS011;6639;50.956;4.242;2023-04-06T12:45:38;12.88;;;11.60;;
13147;SDS011;6639;50.956;4.242;2023-04-06T12:48:05;12.43;;;11.23;;
13147;SDS011;6639;50.956;4.242;2023-04-06T12:50:32;13.20;;;11.73;;
13147;SDS011;6639;50.956;4.242;2023-04-06T12:53:01;13.13;;;11.88;;
13147;SDS011;6639;50.956;4.242;2023-04-06T12:55:29;13.68;;;12.30;;
13147;SDS011;6639;50.956;4.242;2023-04-06T12:57:59;14.63;;;13.13;;
13147;SDS011;6639;50.956;4.242;2023-04-06T13:00:28;13.30;;;12.00;;
13147;SDS011;6639;50.956;4.242;2023-04-06T13:02:55;15.43;;;13.82;;
13147;SDS011;6639;50.956;4.242;2023-04-06T13:05:22;15.85;;;14.38;;
13147;SDS011;6639;50.956;4.242;2023-04-06T13:07:49;17.20;;;15.40;;
13147;SDS011;6639;50.956;4.242;2023-04-06T13:10:18;15.98;;;13.48;;
13147;SDS011;6639;50.956;4.242;2023-04-06T13:12:45;17.80;;;15.30;;
13147;SDS011;6639;50.956;4.242;2023-04-06T13:15:12;17.15;;;15.25;;
13147;SDS011;6639;50.956;4.242;2023-04-06T13:17:38;16.77;;;14.73;;
13147;SDS011;6639;50.956;4.242;2023-04-06T13:20:06;15.95;;;14.40;;
13147;SDS011;6639;50.956;4.242;2023-04-06T13:22:33;17.15;;;15.45;;
13147;SDS011;6639;50.956;4.242;2023-04-06T13:25:08;17.30;;;15.60;;
13147;SDS011;6639;50.956;4.242;2023-04-06T13:27:36;15.95;;;14.25;;
13147;SDS011;6639;50.956;4.242;2023-04-06T13:30:04;18.45;;;15.77;;
13147;SDS011;6639;50.956;4.242;2023-04-06T13:32:32;16.95;;;15.15;;
13147;SDS011;6639;50.956;4.242;2023-04-06T13:34:59;16.42;;;14.82;;
13147;SDS011;6639;50.956;4.242;2023-04-06T13:37:28;15.68;;;12.55;;
13147;SDS011;6639;50.956;4.242;2023-04-06T13:39:55;16.98;;;15.38;;
13147;SDS011;6639;50.956;4.242;2023-04-06T13:42:29;17.65;;;15.82;;
13147;SDS011;6639;50.956;4.242;2023-04-06T13:44:58;18.15;;;16.23;;
13147;SDS011;6639;50.956;4.242;2023-04-06T13:47:25;18.42;;;16.33;;
13147;SDS011;6639;50.956;4.242;2023-04-06T13:49:52;17.45;;;15.75;;
13147;SDS011;6639;50.956;4.242;2023-04-06T13:52:20;17.30;;;15.50;;
13147;SDS011;6639;50.956;4.242;2023-04-06T13:54:48;17.33;;;15.63;;
13147;SDS011;6639;50.956;4.242;2023-04-06T13:57:15;17.65;;;15.93;;
13147;SDS011;6639;50.956;4.242;2023-04-06T13:59:42;18.65;;;16.77;;
13147;SDS011;6639;50.956;4.242;2023-04-06T14:02:10;19.75;;;17.75;;
13147;SDS011;6639;50.956;4.242;2023-04-06T14:04:37;19.20;;;17.33;;
13147;SDS011;6639;50.956;4.242;2023-04-06T14:07:04;18.50;;;16.67;;
13147;SDS011;6639;50.956;4.242;2023-04-06T14:09:32;19.50;;;17.52;;
13147;SDS011;6639;50.956;4.242;2023-04-06T14:11:59;18.95;;;16.80;;
13147;SDS011;6639;50.956;4.242;2023-04-06T14:14:26;17.27;;;15.57;;
13147;SDS011;6639;50.956;4.242;2023-04-06T14:16:54;18.23;;;16.35;;
13147;SDS011;6639;50.956;4.242;2023-04-06T14:19:22;18.77;;;16.77;;
13147;SDS011;6639;50.956;4.242;2023-04-06T14:21:49;19.50;;;17.05;;
13147;SDS011;6639;50.956;4.242;2023-04-06T14:24:17;19.92;;;17.83;;
13147;SDS011;6639;50.956;4.242;2023-04-06T14:26:44;18.98;;;17.00;;
13147;SDS011;6639;50.956;4.242;2023-04-06T14:29:11;19.80;;;17.80;;
13147;SDS011;6639;50.956;4.242;2023-04-06T14:31:38;18.77;;;16.85;;
13147;SDS011;6639;50.956;4.242;2023-04-06T14:34:05;15.57;;;14.07;;
13147;SDS011;6639;50.956;4.242;2023-04-06T14:36:33;19.38;;;17.38;;
13147;SDS011;6639;50.956;4.242;2023-04-06T14:39:03;17.95;;;16.20;;
13147;SDS011;6639;50.956;4.242;2023-04-06T14:41:31;17.70;;;15.88;;
13147;SDS011;6639;50.956;4.242;2023-04-06T14:43:58;19.63;;;17.08;;
13147;SDS011;6639;50.956;4.242;2023-04-06T14:46:26;18.05;;;16.20;;
13147;SDS011;6639;50.956;4.242;2023-04-06T14:48:54;18.90;;;16.88;;